createdAt,value
2019-04-27T00:01:23.329Z,58.83
2019-04-27T00:04:11.744Z,57.33
2019-04-27T00:06:46.449Z,50.13
2019-04-27T00:09:25.061Z,56.30
2019-04-27T00:12:00.091Z,62.00
2019-04-27T00:14:30.151Z,61.90
2019-04-27T00:17:21.116Z,57.63
2019-04-27T00:19:58.314Z,65.10
2019-04-27T00:22:50.186Z,64.67
2019-04-27T00:25:20.260Z,61.37
2019-04-27T00:27:50.466Z,57.90
2019-04-27T00:30:20.675Z,67.37
2019-04-27T00:32:50.781Z,75.77
2019-04-27T00:35:30.320Z,64.07
2019-04-27T00:38:17.408Z,71.73
2019-04-27T00:40:57.779Z,64.30
2019-04-27T00:43:27.866Z,66.37
2019-04-27T00:45:57.931Z,57.93
2019-04-27T00:48:28.028Z,63.57
2019-04-27T00:50:58.150Z,73.63
2019-04-27T00:53:28.233Z,67.67
2019-04-27T00:56:17.253Z,72.33
2019-04-27T00:59:18.746Z,66.70
2019-04-27T01:02:06.883Z,71.67
2019-04-27T01:04:39.314Z,66.70
2019-04-27T01:07:10.547Z,66.47
2019-04-27T01:09:40.651Z,73.90
2019-04-27T01:12:11.319Z,71.73
2019-04-27T01:14:42.798Z,77.17
2019-04-27T01:17:13.240Z,74.70
2019-04-27T01:19:43.320Z,72.87
2019-04-27T01:22:13.802Z,70.23
2019-04-27T01:24:43.890Z,65.07
2019-04-27T01:27:31.867Z,70.80
2019-04-27T01:30:02.056Z,67.90
2019-04-27T01:32:33.967Z,76.73
2019-04-27T01:35:03.975Z,86.57
2019-04-27T01:37:34.038Z,86.13
2019-04-27T01:40:05.708Z,85.67
2019-04-27T01:42:35.793Z,95.47
2019-04-27T01:45:06.439Z,98.47
2019-04-27T01:47:36.510Z,85.13
2019-04-27T01:50:08.635Z,103.47
2019-04-27T01:52:38.703Z,91.10
2019-04-27T01:55:08.788Z,72.73
2019-04-27T01:57:38.852Z,81.90
2019-04-27T02:00:29.479Z,73.63
2019-04-27T02:03:01.389Z,66.83
2019-04-27T02:05:49.256Z,75.10
2019-04-27T02:08:19.661Z,63.47
2019-04-27T02:10:49.803Z,73.83
2019-04-27T02:13:20.323Z,82.90
2019-04-27T02:15:50.440Z,85.63
2019-04-27T02:18:20.507Z,82.07
2019-04-27T02:20:59.675Z,73.20
2019-04-27T02:23:29.745Z,65.93
2019-04-27T02:25:59.839Z,73.50
2019-04-27T02:28:51.699Z,78.47
2019-04-27T02:31:43.617Z,81.30
2019-04-27T02:34:16.450Z,86.07
2019-04-27T02:36:46.569Z,100.67
2019-04-27T02:39:16.679Z,88.73
2019-04-27T02:41:46.753Z,78.73
2019-04-27T02:44:19.961Z,69.67
2019-04-27T02:46:50.499Z,75.30
2019-04-27T02:49:20.659Z,69.07
2019-04-27T02:52:15.998Z,87.27
2019-04-27T02:54:46.094Z,77.90
2019-04-27T02:57:16.172Z,93.60
2019-04-27T02:59:46.253Z,82.60
2019-04-27T03:02:35.281Z,93.10
2019-04-27T03:05:06.401Z,95.43
2019-04-27T03:07:36.472Z,88.33
2019-04-27T03:10:06.873Z,83.83
2019-04-27T03:12:42.853Z,82.60
2019-04-27T03:15:23.685Z,80.93
2019-04-27T03:18:11.079Z,85.70
2019-04-27T03:21:00.301Z,86.10
2019-04-27T03:23:30.511Z,83.77
2019-04-27T03:26:10.535Z,77.00
2019-04-27T03:28:40.441Z,67.17
2019-04-27T03:31:13.642Z,84.67
2019-04-27T03:33:43.305Z,88.63
2019-04-27T03:36:13.623Z,85.90
2019-04-27T03:38:43.706Z,91.93
2019-04-27T03:41:13.975Z,115.57
2019-04-27T03:43:44.055Z,94.53
2019-04-27T03:46:14.134Z,100.10
2019-04-27T03:48:44.195Z,82.20
2019-04-27T03:51:32.168Z,76.93
2019-04-27T03:54:22.197Z,74.83
2019-04-27T03:57:10.476Z,67.93
2019-04-27T03:59:59.667Z,63.17
2019-04-27T04:02:30.561Z,56.60
2019-04-27T04:05:00.792Z,52.83
2019-04-27T04:07:30.840Z,64.63
2019-04-27T04:10:00.938Z,58.80
2019-04-27T04:12:39.771Z,55.27
2019-04-27T04:15:11.887Z,61.50
2019-04-27T04:17:41.961Z,82.30
2019-04-27T04:20:12.163Z,74.67
2019-04-27T04:22:42.242Z,72.03
2019-04-27T04:25:12.324Z,88.53
2019-04-27T04:27:42.830Z,81.33
2019-04-27T04:30:13.099Z,76.17
2019-04-27T04:32:43.182Z,86.37
2019-04-27T04:35:21.869Z,125.90
2019-04-27T04:37:52.845Z,236.60
2019-04-27T04:40:30.800Z,361.47
2019-04-27T04:43:10.863Z,367.00
2019-04-27T04:45:50.100Z,400.10
2019-04-27T04:48:20.433Z,324.17
2019-04-27T04:50:50.505Z,409.83
2019-04-27T04:53:20.906Z,372.83
2019-04-27T04:55:51.009Z,261.83
2019-04-27T04:58:21.289Z,369.50
2019-04-27T05:00:51.331Z,266.13
2019-04-27T05:03:21.923Z,288.67
2019-04-27T05:05:52.151Z,214.17
2019-04-27T05:08:22.224Z,141.77
2019-04-27T05:10:52.284Z,106.67
2019-04-27T05:13:22.375Z,102.47
2019-04-27T05:15:52.459Z,81.17
2019-04-27T05:18:22.570Z,59.03
2019-04-27T05:21:10.463Z,124.20
2019-04-27T05:23:40.557Z,300.27
2019-04-27T05:26:10.643Z,175.40
2019-04-27T05:28:40.946Z,107.97
2019-04-27T05:31:10.975Z,178.03
2019-04-27T05:33:41.049Z,148.50
2019-04-27T05:36:11.139Z,78.47
2019-04-27T05:38:45.881Z,83.60
2019-04-27T05:41:13.037Z,73.40
2019-04-27T05:43:49.418Z,108.23
2019-04-27T05:46:41.106Z,80.60
2019-04-27T05:49:16.649Z,64.87
2019-04-27T05:51:48.470Z,68.17
2019-04-27T05:54:19.238Z,82.63
2019-04-27T05:56:49.419Z,66.70
2019-04-27T05:59:19.959Z,68.43
2019-04-27T06:01:50.143Z,62.40
2019-04-27T06:04:20.229Z,64.93
2019-04-27T06:06:50.289Z,67.97
2019-04-27T06:09:20.391Z,69.03
2019-04-27T06:11:50.816Z,73.77
2019-04-27T06:14:20.983Z,65.37
2019-04-27T06:16:51.492Z,74.63
2019-04-27T06:19:21.561Z,66.07
2019-04-27T06:21:51.652Z,55.63
2019-04-27T06:24:21.734Z,55.63
2019-04-27T06:26:51.821Z,57.47
2019-04-27T06:29:21.926Z,58.80
2019-04-27T06:31:52.001Z,46.90
2019-04-27T06:34:22.121Z,49.40
2019-04-27T06:36:52.219Z,44.70
2019-04-27T06:39:22.309Z,39.67
2019-04-27T06:41:52.409Z,39.63
2019-04-27T06:44:22.514Z,42.37
2019-04-27T06:46:52.679Z,36.37
2019-04-27T06:49:22.791Z,37.03
2019-04-27T06:51:52.923Z,34.10
2019-04-27T06:54:23.027Z,38.17
2019-04-27T06:56:53.091Z,32.43
2019-04-27T06:59:23.174Z,37.23
2019-04-27T07:01:53.270Z,30.13
2019-04-27T07:04:23.392Z,33.50
2019-04-27T07:06:56.118Z,30.20
2019-04-27T07:09:25.363Z,30.00
2019-04-27T07:11:55.501Z,27.13
2019-04-27T07:14:25.605Z,30.43
2019-04-27T07:16:55.749Z,30.03
2019-04-27T07:19:25.987Z,26.90
2019-04-27T07:21:56.151Z,23.50
2019-04-27T07:24:26.222Z,26.77
2019-04-27T07:26:56.466Z,25.80
2019-04-27T07:29:26.608Z,26.10
2019-04-27T07:31:57.016Z,24.93
2019-04-27T07:34:29.032Z,29.57
2019-04-27T07:36:59.802Z,23.50
2019-04-27T07:39:30.111Z,28.33
2019-04-27T07:42:01.035Z,22.63
2019-04-27T07:44:39.116Z,28.13
2019-04-27T07:47:34.951Z,30.43
2019-04-27T07:50:05.313Z,23.73
2019-04-27T07:52:37.846Z,20.93
2019-04-27T07:55:09.362Z,24.53
2019-04-27T07:57:40.055Z,22.90
2019-04-27T08:00:10.447Z,21.23
2019-04-27T08:02:40.576Z,19.10
2019-04-27T08:05:10.655Z,28.97
2019-04-27T08:07:41.189Z,20.70
2019-04-27T08:10:11.938Z,18.33
2019-04-27T08:12:42.090Z,18.90
2019-04-27T08:15:12.307Z,18.10
2019-04-27T08:17:42.912Z,17.17
2019-04-27T08:20:13.199Z,15.70
2019-04-27T08:22:43.301Z,15.77
2019-04-27T08:25:13.429Z,14.97
2019-04-27T08:28:00.295Z,20.17
2019-04-27T08:30:49.531Z,18.83
2019-04-27T08:33:19.635Z,13.67
2019-04-27T08:35:49.760Z,12.83
2019-04-27T08:38:20.684Z,12.40
2019-04-27T08:40:50.886Z,13.23
2019-04-27T08:43:21.006Z,15.63
2019-04-27T08:45:51.081Z,15.43
2019-04-27T08:48:33.949Z,9.43
2019-04-27T08:50:53.047Z,12.47
2019-04-27T08:53:23.147Z,14.43
2019-04-27T08:55:53.246Z,12.20
2019-04-27T08:58:23.395Z,10.50
2019-04-27T09:00:53.487Z,10.37
2019-04-27T09:03:23.602Z,11.90
2019-04-27T09:05:53.721Z,9.20
2019-04-27T09:08:42.135Z,9.23
2019-04-27T09:11:34.174Z,10.77
2019-04-27T09:14:14.213Z,8.87
2019-04-27T09:17:02.216Z,10.40
2019-04-27T09:19:53.865Z,6.90
2019-04-27T09:22:23.993Z,6.47
2019-04-27T09:24:54.120Z,8.80
2019-04-27T09:27:24.244Z,9.07
2019-04-27T09:29:54.339Z,7.43
2019-04-27T09:32:24.473Z,15.27
2019-04-27T09:34:54.571Z,8.03
2019-04-27T09:37:24.643Z,5.83
2019-04-27T09:39:56.123Z,8.07
2019-04-27T09:42:26.818Z,11.53
2019-04-27T09:44:57.139Z,4.67
2019-04-27T09:47:27.219Z,5.00
2019-04-27T09:49:57.349Z,2.93
2019-04-27T09:52:28.699Z,5.83
2019-04-27T09:54:58.832Z,3.07
2019-04-27T09:57:28.892Z,4.97
2019-04-27T09:59:59.008Z,4.40
2019-04-27T10:02:29.089Z,1.60
2019-04-27T10:04:59.217Z,2.23
2019-04-27T10:07:29.299Z,2.47
2019-04-27T10:10:01.201Z,3.57
2019-04-27T10:12:34.186Z,3.23
2019-04-27T10:15:03.331Z,6.20
2019-04-27T10:17:33.426Z,4.83
2019-04-27T10:20:03.535Z,4.33
2019-04-27T10:22:41.118Z,3.23
2019-04-27T10:25:06.526Z,3.00
2019-04-27T10:27:36.713Z,2.57
2019-04-27T10:30:09.044Z,3.00
2019-04-27T10:32:39.232Z,2.23
2019-04-27T10:35:09.461Z,4.43
2019-04-27T10:37:39.596Z,2.47
2019-04-27T10:40:09.808Z,7.23
2019-04-27T10:42:39.890Z,1.47
2019-04-27T10:45:11.865Z,4.93
2019-04-27T10:47:41.970Z,3.40
2019-04-27T10:50:12.285Z,2.10
2019-04-27T10:52:52.848Z,3.43
2019-04-27T10:55:16.021Z,3.57
2019-04-27T10:57:46.301Z,3.13
2019-04-27T11:00:20.318Z,5.93
2019-04-27T11:02:50.411Z,5.20
2019-04-27T11:05:32.052Z,1.10
2019-04-27T11:08:02.164Z,1.03
2019-04-27T11:10:32.243Z,3.07
2019-04-27T11:13:02.928Z,2.50
2019-04-27T11:15:33.096Z,1.77
2019-04-27T11:18:03.197Z,3.40
2019-04-27T11:20:33.312Z,1.33
2019-04-27T11:23:09.360Z,2.70
2019-04-27T11:25:36.476Z,2.33
2019-04-27T11:28:06.610Z,1.30
2019-04-27T11:30:36.811Z,3.80
2019-04-27T11:33:06.951Z,6.23
2019-04-27T11:36:06.283Z,2.13
2019-04-27T11:38:36.603Z,3.63
2019-04-27T11:41:07.557Z,1.43
2019-04-27T11:43:37.723Z,5.47
2019-04-27T11:46:07.841Z,2.13
2019-04-27T11:48:37.949Z,1.90
2019-04-27T11:51:10.918Z,1.93
2019-04-27T11:53:39.917Z,2.20
2019-04-27T11:56:10.181Z,3.70
2019-04-27T11:58:40.280Z,0.67
2019-04-27T12:01:10.407Z,1.77
2019-04-27T12:03:40.575Z,2.23
2019-04-27T12:06:10.731Z,2.17
2019-04-27T12:08:41.597Z,3.83
2019-04-27T12:11:12.154Z,6.37
2019-04-27T12:13:42.264Z,3.87
2019-04-27T12:16:21.466Z,2.37
2019-04-27T12:18:51.553Z,1.33
2019-04-27T12:21:21.696Z,2.10
2019-04-27T12:23:51.799Z,1.40
2019-04-27T12:26:39.689Z,1.00
2019-04-27T12:29:11.670Z,2.07
2019-04-27T12:31:46.448Z,3.67
2019-04-27T12:34:16.302Z,0.87
2019-04-27T12:36:46.522Z,3.63
2019-04-27T12:39:16.641Z,4.17
2019-04-27T12:41:46.740Z,0.60
2019-04-27T12:44:16.892Z,3.40
2019-04-27T12:46:47.127Z,2.93
2019-04-27T12:49:17.262Z,1.17
2019-04-27T12:51:47.442Z,4.05
2019-04-27T12:54:26.880Z,0.80
2019-04-27T12:57:20.796Z,2.07
2019-04-27T13:00:08.268Z,0.30
2019-04-27T13:02:38.517Z,1.73
2019-04-27T13:05:09.722Z,0.80
2019-04-27T13:07:39.846Z,2.40
2019-04-27T13:10:10.039Z,1.07
2019-04-27T13:12:40.127Z,1.23
2019-04-27T13:15:11.063Z,4.73
2019-04-27T13:17:41.264Z,0.93
2019-04-27T13:20:11.398Z,0.60
2019-04-27T13:22:41.563Z,0.77
2019-04-27T13:25:13.342Z,6.17
2019-04-27T13:27:43.413Z,0.97
2019-04-27T13:30:13.713Z,0.60
2019-04-27T13:32:43.790Z,4.40
2019-04-27T13:35:15.714Z,1.23
2019-04-27T13:37:46.727Z,0.63
2019-04-27T13:40:17.470Z,1.53
2019-04-27T13:43:02.595Z,4.00
2019-04-27T13:46:12.627Z,9.30
2019-04-27T13:49:03.976Z,1.27
2019-04-27T13:51:40.349Z,3.53
2019-04-27T13:54:18.644Z,7.57
2019-04-27T13:56:42.273Z,6.43
2019-04-27T13:59:15.096Z,8.50
2019-04-27T14:01:45.236Z,4.67
2019-04-27T14:04:15.376Z,6.80
2019-04-27T14:06:45.549Z,8.90
2019-04-27T14:09:15.704Z,4.73
2019-04-27T14:11:45.843Z,3.73
2019-04-27T14:14:16.052Z,6.37
2019-04-27T14:16:46.158Z,5.50
2019-04-27T14:19:16.291Z,4.40
2019-04-27T14:21:46.492Z,3.50
2019-04-27T14:24:27.462Z,3.67
2019-04-27T14:26:48.650Z,5.77
2019-04-27T14:29:19.004Z,2.97
2019-04-27T14:31:49.820Z,2.30
2019-04-27T14:34:20.020Z,3.47
2019-04-27T14:36:50.152Z,2.23
2019-04-27T14:39:20.463Z,1.93
2019-04-27T14:41:50.606Z,1.43
2019-04-27T14:44:20.744Z,3.37
2019-04-27T14:46:50.867Z,4.43
2019-04-27T14:49:20.971Z,2.40
2019-04-27T14:51:51.083Z,1.47
2019-04-27T14:54:21.196Z,1.93
2019-04-27T14:56:51.363Z,1.80
2019-04-27T14:59:21.448Z,2.67
2019-04-27T15:01:51.719Z,1.97
2019-04-27T15:04:21.823Z,2.97
2019-04-27T15:06:51.967Z,2.60
2019-04-27T15:09:23.919Z,2.17
2019-04-27T15:11:54.988Z,2.20
2019-04-27T15:14:25.700Z,2.33
2019-04-27T15:16:56.524Z,3.83
2019-04-27T15:19:34.823Z,3.70
2019-04-27T15:22:06.302Z,3.50
2019-04-27T15:24:36.409Z,1.97
2019-04-27T15:27:08.284Z,3.30
2019-04-27T15:29:38.403Z,2.33
2019-04-27T15:32:12.959Z,2.33
2019-04-27T15:34:53.215Z,4.00
2019-04-27T15:37:34.196Z,2.83
2019-04-27T15:40:36.448Z,3.03
2019-04-27T15:43:27.296Z,4.00
2019-04-27T15:45:57.761Z,4.20
2019-04-27T15:48:30.520Z,4.87
2019-04-27T15:51:02.891Z,4.80
2019-04-27T15:53:30.683Z,5.90
2019-04-27T15:56:01.949Z,6.43
2019-04-27T15:58:32.195Z,3.87
2019-04-27T16:01:06.723Z,5.83
2019-04-27T16:03:35.548Z,3.13
2019-04-27T16:06:08.217Z,4.53
2019-04-27T16:08:44.331Z,3.90
2019-04-27T16:11:16.293Z,4.67
2019-04-27T16:13:41.436Z,4.13
2019-04-27T16:16:11.646Z,7.60
2019-04-27T16:18:41.809Z,4.47
2019-04-27T16:21:11.946Z,3.93
2019-04-27T16:23:43.210Z,4.10
2019-04-27T16:26:15.106Z,4.47
2019-04-27T16:28:49.722Z,5.23
2019-04-27T16:31:18.624Z,3.23
2019-04-27T16:33:49.655Z,4.57
2019-04-27T16:36:20.287Z,3.60
2019-04-27T16:38:56.139Z,3.90
2019-04-27T16:41:28.057Z,4.33
2019-04-27T16:43:58.262Z,7.83
2019-04-27T16:46:28.600Z,5.73
2019-04-27T16:48:59.485Z,3.90
2019-04-27T16:51:35.936Z,9.03
2019-04-27T16:54:01.591Z,4.43
2019-04-27T16:56:31.703Z,5.73
2019-04-27T16:59:20.889Z,2.80
2019-04-27T17:01:33.664Z,3.50
2019-04-27T17:04:06.460Z,9.60
2019-04-27T17:06:40.734Z,7.87
2019-04-27T17:09:11.474Z,6.90
2019-04-27T17:11:43.901Z,4.73
2019-04-27T17:14:34.768Z,3.57
2019-04-27T17:17:21.804Z,3.40
2019-04-27T17:19:58.655Z,3.67
2019-04-27T17:22:28.986Z,6.17
2019-04-27T17:24:59.072Z,3.57
2019-04-27T17:27:38.359Z,4.50
2019-04-27T17:30:10.022Z,4.43
2019-04-27T17:32:51.091Z,4.10
2019-04-27T17:35:21.297Z,5.37
2019-04-27T17:37:54.223Z,5.93
2019-04-27T17:40:23.246Z,5.13
2019-04-27T17:42:53.386Z,7.10
2019-04-27T17:45:23.600Z,5.73
2019-04-27T17:47:53.730Z,7.67
2019-04-27T17:50:25.173Z,3.13
2019-04-27T17:52:57.379Z,3.20
2019-04-27T17:55:27.943Z,3.40
2019-04-27T17:58:04.962Z,2.33
2019-04-27T18:00:32.970Z,3.67
2019-04-27T18:03:02.217Z,2.60
2019-04-27T18:05:32.363Z,3.00
2019-04-27T18:08:02.560Z,2.83
2019-04-27T18:10:32.667Z,2.87
2019-04-27T18:13:02.793Z,4.93
2019-04-27T18:15:32.922Z,3.33
2019-04-27T18:18:10.959Z,3.50
2019-04-27T18:20:41.113Z,2.73
2019-04-27T18:23:16.210Z,2.17
2019-04-27T18:25:52.339Z,2.60
2019-04-27T18:28:25.572Z,4.60
2019-04-27T18:31:15.928Z,4.57
2019-04-27T18:33:45.068Z,3.40
2019-04-27T18:36:15.336Z,7.43
2019-04-27T18:38:45.547Z,5.10
2019-04-27T18:41:15.914Z,6.43
2019-04-27T18:43:51.308Z,5.10
2019-04-27T18:46:21.727Z,4.33
2019-04-27T18:49:09.498Z,12.67
2019-04-27T18:52:04.284Z,8.83
2019-04-27T18:54:38.229Z,9.53
2019-04-27T18:57:06.084Z,9.30
2019-04-27T18:59:38.066Z,6.23
2019-04-27T19:02:08.632Z,7.90
2019-04-27T19:04:38.884Z,8.13
2019-04-27T19:07:09.525Z,11.00
2019-04-27T19:09:40.095Z,8.23
2019-04-27T19:12:10.424Z,9.80
2019-04-27T19:14:41.148Z,7.70
2019-04-27T19:17:12.032Z,6.53
2019-04-27T19:19:44.970Z,5.10
2019-04-27T19:22:15.852Z,10.40
2019-04-27T19:24:46.669Z,7.07
2019-04-27T19:27:42.601Z,5.77
2019-04-27T19:30:28.044Z,5.57
2019-04-27T19:32:58.603Z,7.07
2019-04-27T19:35:30.256Z,6.70
2019-04-27T19:38:01.116Z,8.23
2019-04-27T19:40:31.953Z,6.60
2019-04-27T19:43:05.363Z,7.03
2019-04-27T19:45:35.698Z,5.90
2019-04-27T19:48:05.991Z,7.30
2019-04-27T19:50:36.341Z,6.70
2019-04-27T19:53:06.535Z,5.83
2019-04-27T19:55:36.705Z,6.20
2019-04-27T19:58:08.042Z,5.87
2019-04-27T20:00:44.824Z,4.60
2019-04-27T20:03:19.333Z,7.50
2019-04-27T20:05:49.581Z,8.90
2019-04-27T20:08:23.383Z,4.77
2019-04-27T20:10:53.562Z,6.87
2019-04-27T20:13:23.916Z,2.93
2019-04-27T20:15:54.138Z,3.57
2019-04-27T20:18:24.413Z,6.87
2019-04-27T20:20:55.231Z,2.57
2019-04-27T20:23:25.628Z,11.10
2019-04-27T20:25:55.870Z,6.87
2019-04-27T20:28:26.072Z,4.50
2019-04-27T20:30:56.350Z,4.30
2019-04-27T20:33:26.505Z,4.27
2019-04-27T20:35:56.671Z,3.87
2019-04-27T20:38:26.823Z,3.97
2019-04-27T20:40:56.932Z,6.87
2019-04-27T20:43:27.027Z,2.97
2019-04-27T20:45:57.684Z,3.87
2019-04-27T20:48:27.835Z,8.40
2019-04-27T20:50:57.981Z,4.23
2019-04-27T20:53:32.587Z,7.70
2019-04-27T20:56:02.659Z,5.40
2019-04-27T20:58:32.924Z,8.80
2019-04-27T21:01:03.032Z,5.33
2019-04-27T21:03:37.871Z,5.13
2019-04-27T21:06:24.995Z,6.87
2019-04-27T21:08:55.125Z,2.27
2019-04-27T21:11:26.884Z,3.10
2019-04-27T21:13:57.138Z,2.33
2019-04-27T21:16:27.259Z,4.50
2019-04-27T21:18:57.383Z,3.53
2019-04-27T21:21:27.482Z,5.10
2019-04-27T21:23:57.601Z,2.83
2019-04-27T21:26:27.721Z,2.70
2019-04-27T21:28:57.823Z,2.30
2019-04-27T21:31:27.896Z,6.37
2019-04-27T21:33:58.015Z,8.27
2019-04-27T21:36:28.165Z,8.57
2019-04-27T21:38:58.276Z,7.63
2019-04-27T21:41:28.396Z,5.07
2019-04-27T21:43:58.517Z,7.23
2019-04-27T21:46:31.713Z,2.63
2019-04-27T21:49:02.879Z,6.40
2019-04-27T21:51:34.714Z,6.20
2019-04-27T21:54:17.413Z,5.77
2019-04-27T21:56:47.480Z,6.30
2019-04-27T21:59:21.073Z,5.87
2019-04-27T22:01:55.481Z,4.57
2019-04-27T22:04:27.150Z,5.87
2019-04-27T22:06:57.251Z,5.10
2019-04-27T22:09:28.075Z,4.63
2019-04-27T22:11:58.515Z,3.23
2019-04-27T22:14:28.593Z,4.97
2019-04-27T22:16:58.711Z,7.97
2019-04-27T22:19:31.131Z,6.60
2019-04-27T22:22:03.027Z,3.90
2019-04-27T22:24:36.323Z,6.43
2019-04-27T22:27:06.417Z,11.10
2019-04-27T22:29:36.506Z,6.80
2019-04-27T22:32:06.625Z,5.23
2019-04-27T22:34:36.721Z,10.07
2019-04-27T22:37:06.801Z,6.50
2019-04-27T22:39:46.629Z,5.87
2019-04-27T22:42:51.638Z,10.60
2019-04-27T22:45:25.084Z,5.90
2019-04-27T22:47:55.159Z,9.80
2019-04-27T22:50:25.273Z,8.67
2019-04-27T22:52:56.835Z,6.97
2019-04-27T22:55:27.011Z,7.80
2019-04-27T22:58:14.055Z,7.70
2019-04-27T23:00:55.415Z,7.10
2019-04-27T23:03:31.264Z,6.90
2019-04-27T23:06:01.479Z,11.77
2019-04-27T23:08:32.178Z,11.80
2019-04-27T23:11:02.649Z,6.27
2019-04-27T23:13:32.779Z,8.07
2019-04-27T23:16:04.747Z,7.23
2019-04-27T23:18:34.887Z,8.73
2019-04-27T23:21:05.037Z,7.07
2019-04-27T23:23:35.143Z,10.13
2019-04-27T23:26:05.305Z,8.83
2019-04-27T23:28:35.498Z,9.83
2019-04-27T23:31:27.640Z,9.83
2019-04-27T23:33:57.755Z,12.73
2019-04-27T23:36:27.861Z,11.13
2019-04-27T23:38:57.979Z,10.50
2019-04-27T23:41:28.071Z,8.20
2019-04-27T23:43:58.181Z,8.33
2019-04-27T23:46:28.280Z,12.60
2019-04-27T23:48:58.368Z,10.00
2019-04-27T23:51:38.267Z,8.63
2019-04-27T23:54:08.378Z,8.63
2019-04-27T23:56:38.475Z,12.37
2019-04-27T23:59:08.578Z,14.57
